Alleghany, Virginia
Current Conditions -  °F | °C
As of 9:35 PM on Wednesday 22 Oct 2014 (Local Time) from KHSP Reporting Station
Overcast Overcast  
Wind Chill: 30°   Ceiling: 800
Heat Index: 40°   Visibility: 10mi
Dew Point: 37°   Wind: 23mph
Humidity: 89%   Direction: 310°NW
Pressure: 30.06"   Gusts: 31mph
Location:  37.7731°N, 80.0632°W
Report Text: KHSP 230135Z AUTO 31020G27KT 10SM OVC008 05/03 A3006 RMK AO2 T00460030
Loading
Personal Weather Stations






























Interactive Weather Map New forecast layout! Learn more

10-Day Weather Forecast

Advertisements
Track Severe Weather on mobile